createdAt,value
2018-12-02T00:00:57.249Z,99894.05
2018-12-02T00:03:27.613Z,99890.53
2018-12-02T00:05:57.028Z,99891.30
2018-12-02T00:08:26.384Z,99885.28
2018-12-02T00:10:55.809Z,99880.13
2018-12-02T00:13:25.448Z,99875.85
2018-12-02T00:15:55.012Z,99868.38
2018-12-02T00:18:24.349Z,99869.33
2018-12-02T00:20:53.839Z,99866.88
2018-12-02T00:23:23.235Z,99858.55
2018-12-02T00:25:52.793Z,99868.55
2018-12-02T00:28:22.254Z,99858.79
2018-12-02T00:30:51.668Z,99857.56
2018-12-02T00:33:21.083Z,99852.95
2018-12-02T00:35:50.607Z,99850.47
2018-12-02T00:38:19.977Z,99837.95
2018-12-02T00:40:49.324Z,99850.09
2018-12-02T00:43:18.848Z,99844.12
2018-12-02T00:45:48.267Z,99835.06
2018-12-02T00:48:17.692Z,99834.95
2018-12-02T00:50:47.032Z,99825.41
2018-12-02T00:53:16.430Z,99815.33
2018-12-02T00:55:46.593Z,99814.23
2018-12-02T00:58:16.076Z,99818.05
2018-12-02T01:00:45.651Z,99806.62
2018-12-02T01:03:14.980Z,99807.63
2018-12-02T01:05:44.489Z,99795.17
2018-12-02T01:08:13.963Z,99794.78
2018-12-02T01:10:43.361Z,99790.89
2018-12-02T01:13:12.693Z,99787.25
2018-12-02T01:15:42.895Z,99793.81
2018-12-02T01:18:12.257Z,99777.30
2018-12-02T01:20:41.778Z,99780.80
2018-12-02T01:23:11.210Z,99769.19
2018-12-02T01:25:40.676Z,99770.29
2018-12-02T01:28:10.022Z,99781.25
2018-12-02T01:30:39.530Z,99771.14
2018-12-02T01:33:09.140Z,99778.67
2018-12-02T01:35:38.534Z,99762.23
2018-12-02T01:38:08.133Z,99767.55
2018-12-02T01:40:37.533Z,99762.11
2018-12-02T01:43:06.972Z,99769.91
2018-12-02T01:45:36.319Z,99757.76
2018-12-02T01:48:06.412Z,99755.53
2018-12-02T01:50:35.782Z,99753.01
2018-12-02T01:53:06.609Z,99772.34
2018-12-02T01:55:35.994Z,99749.96
2018-12-02T01:58:05.574Z,99746.64
2018-12-02T02:00:34.920Z,99747.94
2018-12-02T02:03:04.304Z,99738.27
2018-12-02T02:05:33.710Z,99738.39
2018-12-02T02:08:03.215Z,99729.36
2018-12-02T02:10:32.588Z,99716.63
2018-12-02T02:13:01.972Z,99717.22
2018-12-02T02:15:31.634Z,99722.01
2018-12-02T02:18:01.001Z,99717.38
2018-12-02T02:20:30.417Z,99704.23
2018-12-02T02:22:59.847Z,99713.28
2018-12-02T02:25:29.188Z,99704.83
2018-12-02T02:28:00.153Z,99709.50
2018-12-02T02:30:30.560Z,99694.89
2018-12-02T02:33:00.024Z,99704.59
2018-12-02T02:35:29.401Z,99684.91
2018-12-02T02:37:59.446Z,99679.72
2018-12-02T02:40:30.281Z,99686.47
2018-12-02T02:42:59.628Z,99683.87
2018-12-02T02:45:29.042Z,99680.65
2018-12-02T02:47:58.462Z,99673.16
2018-12-02T02:50:27.991Z,99673.23
2018-12-02T02:53:01.774Z,99669.45
2018-12-02T02:55:31.299Z,99665.04
2018-12-02T02:58:00.864Z,99662.89
2018-12-02T03:00:30.607Z,99665.56
2018-12-02T03:03:00.061Z,99653.95
2018-12-02T03:05:29.440Z,99663.48
2018-12-02T03:07:58.844Z,99664.44
2018-12-02T03:10:28.225Z,99670.48
2018-12-02T03:12:57.580Z,99664.95
2018-12-02T03:15:26.951Z,99647.88
2018-12-02T03:17:56.301Z,99649.68
2018-12-02T03:20:26.072Z,99647.27
2018-12-02T03:22:56.580Z,99635.94
2018-12-02T03:25:27.815Z,99637.30
2018-12-02T03:27:57.875Z,99640.86
2018-12-02T03:30:27.371Z,99631.70
2018-12-02T03:32:56.771Z,99631.67
2018-12-02T03:35:27.201Z,99625.63
2018-12-02T03:37:57.423Z,99617.45
2018-12-02T03:40:28.877Z,99616.04
2018-12-02T03:42:58.248Z,99618.56
2018-12-02T03:45:28.861Z,99609.63
2018-12-02T03:47:58.971Z,99606.38
2018-12-02T03:50:28.415Z,99607.41
2018-12-02T03:52:57.771Z,99592.62
2018-12-02T03:55:27.283Z,99589.14
2018-12-02T03:57:56.631Z,99590.17
2018-12-02T04:00:26.600Z,99587.84
2018-12-02T04:02:57.297Z,99592.06
2018-12-02T04:05:27.275Z,99579.09
2018-12-02T04:07:56.616Z,99574.87
2018-12-02T04:10:26.021Z,99570.88
2018-12-02T04:12:55.473Z,99572.88
2018-12-02T04:15:25.715Z,99559.13
2018-12-02T04:17:55.117Z,99558.80
2018-12-02T04:20:24.546Z,99559.31
2018-12-02T04:22:54.321Z,99549.83
2018-12-02T04:25:27.363Z,99545.56
2018-12-02T04:27:56.823Z,99560.09
2018-12-02T04:30:26.251Z,99538.13
2018-12-02T04:32:56.501Z,99537.64
2018-12-02T04:35:26.922Z,99540.23
2018-12-02T04:37:56.389Z,99535.90
2018-12-02T04:40:25.835Z,99525.52
2018-12-02T04:42:55.200Z,99520.59
2018-12-02T04:45:24.593Z,99521.00
2018-12-02T04:47:53.966Z,99525.73
2018-12-02T04:50:25.325Z,99532.15
2018-12-02T04:52:54.724Z,99516.21
2018-12-02T04:55:24.288Z,99511.84
2018-12-02T04:57:53.670Z,99508.92
2018-12-02T05:00:23.225Z,99505.43
2018-12-02T05:02:53.476Z,99495.39
2018-12-02T05:05:24.344Z,99499.72
2018-12-02T05:07:54.438Z,99498.35
2018-12-02T05:10:24.007Z,99497.86
2018-12-02T05:12:53.421Z,99481.89
2018-12-02T05:15:23.326Z,99485.13
2018-12-02T05:17:52.813Z,99482.41
2018-12-02T05:20:23.046Z,99478.20
2018-12-02T05:22:52.465Z,99469.97
2018-12-02T05:25:22.072Z,99467.82
2018-12-02T05:27:51.473Z,99460.94
2018-12-02T05:30:23.097Z,99453.63
2018-12-02T05:32:53.817Z,99454.52
2018-12-02T05:35:23.307Z,99435.59
2018-12-02T05:37:52.974Z,99434.63
2018-12-02T05:40:23.873Z,99426.92
2018-12-02T05:42:54.704Z,99431.78
2018-12-02T05:45:24.286Z,99422.95
2018-12-02T05:47:53.765Z,99418.22
2018-12-02T05:50:26.000Z,99411.41
2018-12-02T05:52:59.642Z,99409.91
2018-12-02T05:55:32.563Z,99404.68
2018-12-02T05:58:01.984Z,99401.23
2018-12-02T06:00:31.519Z,99404.20
2018-12-02T06:03:00.952Z,99401.93
2018-12-02T06:05:30.371Z,99407.84
2018-12-02T06:07:59.850Z,99399.41
2018-12-02T06:10:29.325Z,99402.78
2018-12-02T06:12:58.830Z,99404.92
2018-12-02T06:15:28.241Z,99413.55
2018-12-02T06:17:57.765Z,99395.08
2018-12-02T06:20:27.358Z,99396.70
2018-12-02T06:22:58.261Z,99393.63
2018-12-02T06:25:27.638Z,99397.84
2018-12-02T06:27:57.129Z,99392.13
2018-12-02T06:30:27.964Z,99389.48
2018-12-02T06:33:00.035Z,99396.94
2018-12-02T06:35:29.434Z,99377.41
2018-12-02T06:38:00.374Z,99381.22
2018-12-02T06:40:30.468Z,99377.73
2018-12-02T06:42:59.897Z,99377.48
2018-12-02T06:45:29.302Z,99377.33
2018-12-02T06:48:00.544Z,99370.80
2018-12-02T06:50:30.162Z,99377.61
2018-12-02T06:52:59.573Z,99364.76
2018-12-02T06:55:32.816Z,99372.02
2018-12-02T07:00:20.063Z,99366.63
2018-12-02T07:03:00.819Z,99368.77
2018-12-02T07:05:34.740Z,99370.52
2018-12-02T07:08:04.190Z,99383.73
2018-12-02T07:10:33.690Z,99376.10
2018-12-02T07:13:03.092Z,99369.94
2018-12-02T07:15:32.515Z,99364.27
2018-12-02T07:18:02.049Z,99361.67
2018-12-02T07:20:31.610Z,99376.27
2018-12-02T07:23:05.006Z,99377.56
2018-12-02T07:25:34.431Z,99367.05
2018-12-02T07:28:03.892Z,99371.34
2018-12-02T07:30:33.432Z,99370.10
2018-12-02T07:33:02.826Z,99373.02
2018-12-02T07:35:32.133Z,99365.76
2018-12-02T07:38:06.821Z,99366.00
2018-12-02T07:40:38.650Z,99363.41
2018-12-02T07:43:10.587Z,99362.50
2018-12-02T07:45:40.094Z,99359.46
2018-12-02T07:48:09.571Z,99364.49
2018-12-02T07:50:40.103Z,99362.22
2018-12-02T07:53:08.519Z,99358.64
2018-12-02T07:55:37.921Z,99349.16
2018-12-02T07:58:12.290Z,99356.23
2018-12-02T08:00:41.816Z,99354.54
2018-12-02T08:03:11.762Z,99358.43
2018-12-02T08:05:41.368Z,99356.69
2018-12-02T08:08:10.905Z,99357.77
2018-12-02T08:10:40.338Z,99354.11
2018-12-02T08:13:09.880Z,99360.41
2018-12-02T08:15:39.267Z,99352.95
2018-12-02T08:18:08.675Z,99355.41
2018-12-02T08:20:38.109Z,99362.66
2018-12-02T08:23:07.936Z,99360.30
2018-12-02T08:25:37.353Z,99358.19
2018-12-02T08:28:06.834Z,99355.25
2018-12-02T08:30:36.169Z,99358.80
2018-12-02T08:33:05.722Z,99352.70
2018-12-02T08:35:35.233Z,99354.84
2018-12-02T08:38:10.225Z,99359.91
2018-12-02T08:40:39.750Z,99359.01
2018-12-02T08:43:09.809Z,99350.60
2018-12-02T08:45:39.373Z,99348.80
2018-12-02T08:48:08.821Z,99359.88
2018-12-02T08:50:38.443Z,99361.57
2018-12-02T08:53:09.550Z,99361.41
2018-12-02T08:55:39.131Z,99363.73
2018-12-02T08:58:08.568Z,99362.80
2018-12-02T09:00:38.009Z,99352.41
2018-12-02T09:03:10.329Z,99360.37
2018-12-02T09:05:39.765Z,99371.22
2018-12-02T09:08:10.892Z,99363.88
2018-12-02T09:10:40.800Z,99363.60
2018-12-02T09:13:10.796Z,99372.98
2018-12-02T09:15:40.333Z,99382.33
2018-12-02T09:18:11.296Z,99366.26
2018-12-02T09:20:40.782Z,99368.80
2018-12-02T09:23:13.073Z,99357.65
2018-12-02T09:25:42.021Z,99358.41
2018-12-02T09:28:11.552Z,99358.09
2018-12-02T09:30:41.187Z,99358.95
2018-12-02T09:33:15.130Z,99362.31
2018-12-02T09:35:49.628Z,99361.15
2018-12-02T09:38:21.742Z,99368.89
2018-12-02T09:40:51.273Z,99364.01
2018-12-02T09:43:20.847Z,99376.61
2018-12-02T09:45:50.333Z,99360.64
2018-12-02T09:48:19.786Z,99363.91
2018-12-02T09:50:49.176Z,99378.39
2018-12-02T09:53:18.595Z,99380.00
2018-12-02T09:55:49.419Z,99372.11
2018-12-02T09:58:26.132Z,99370.13
2018-12-02T10:00:58.437Z,99378.38
2018-12-02T10:03:27.945Z,99380.52
2018-12-02T10:05:57.349Z,99378.37
2018-12-02T10:08:26.764Z,99377.38
2018-12-02T10:10:56.221Z,99382.58
2018-12-02T10:13:25.707Z,99372.64
2018-12-02T10:15:55.218Z,99377.50
2018-12-02T10:18:24.599Z,99372.30
2018-12-02T10:20:54.001Z,99375.67
2018-12-02T10:23:23.337Z,99380.19
2018-12-02T10:25:52.829Z,99378.16
2018-12-02T10:28:22.165Z,99369.56
2018-12-02T10:30:51.612Z,99366.11
2018-12-02T10:33:21.959Z,99364.21
2018-12-02T10:35:51.332Z,99370.42
2018-12-02T10:38:20.687Z,99367.52
2018-12-02T10:40:50.201Z,99356.56
2018-12-02T10:43:19.648Z,99356.70
2018-12-02T10:45:49.018Z,99352.36
2018-12-02T10:48:18.387Z,99344.30
2018-12-02T10:50:47.806Z,99339.59
2018-12-02T10:53:22.238Z,99341.64
2018-12-02T10:55:57.161Z,99346.70
2018-12-02T10:58:32.022Z,99342.53
2018-12-02T11:01:08.078Z,99341.59
2018-12-02T11:03:37.745Z,99333.24
2018-12-02T11:06:07.162Z,99324.58
2018-12-02T11:08:36.523Z,99332.32
2018-12-02T11:11:06.265Z,99334.48
2018-12-02T11:13:35.731Z,99329.19
2018-12-02T11:16:05.274Z,99331.59
2018-12-02T11:18:34.689Z,99351.91
2018-12-02T11:21:04.237Z,99340.27
2018-12-02T11:23:34.481Z,99347.65
2018-12-02T11:26:03.154Z,99341.58
2018-12-02T11:28:32.563Z,99331.98
2018-12-02T11:31:01.983Z,99338.02
2018-12-02T11:33:31.443Z,99350.80
2018-12-02T11:36:02.729Z,99344.83
2018-12-02T11:38:33.374Z,99349.48
2018-12-02T11:41:02.878Z,99354.71
2018-12-02T11:43:32.301Z,99347.66
2018-12-02T11:46:01.710Z,99348.39
2018-12-02T11:48:31.096Z,99353.97
2018-12-02T11:51:00.448Z,99354.54
2018-12-02T11:53:29.941Z,99354.92
2018-12-02T11:55:59.279Z,99363.96
2018-12-02T11:58:28.585Z,99360.04
2018-12-02T12:00:59.941Z,99353.87
2018-12-02T12:03:29.826Z,99359.38
2018-12-02T12:05:59.024Z,99364.42
2018-12-02T12:08:28.571Z,99368.34
2018-12-02T12:10:57.929Z,99361.98
2018-12-02T12:13:27.328Z,99368.80
2018-12-02T12:15:56.703Z,99367.95
2018-12-02T12:18:26.737Z,99378.11
2018-12-02T12:20:56.153Z,99377.83
2018-12-02T12:23:25.537Z,99385.38
2018-12-02T12:25:54.880Z,99383.15
2018-12-02T12:28:24.340Z,99381.56
2018-12-02T12:30:54.021Z,99385.75
2018-12-02T12:33:23.372Z,99387.98
2018-12-02T12:35:52.958Z,99388.16
2018-12-02T12:38:22.477Z,99388.64
2018-12-02T12:40:52.755Z,99382.00
2018-12-02T12:43:27.608Z,99387.50
2018-12-02T12:45:57.258Z,99387.67
2018-12-02T12:48:26.630Z,99389.92
2018-12-02T12:50:56.033Z,99388.04
2018-12-02T12:53:25.656Z,99392.16
2018-12-02T12:55:55.045Z,99395.07
2018-12-02T12:58:24.454Z,99390.86
2018-12-02T13:00:53.842Z,99406.16
2018-12-02T13:03:23.248Z,99393.27
2018-12-02T13:05:52.657Z,99396.45
2018-12-02T13:08:22.145Z,99395.81
2018-12-02T13:10:51.781Z,99402.64
2018-12-02T13:13:21.929Z,99403.09
2018-12-02T13:15:50.496Z,99409.17
2018-12-02T13:18:19.843Z,99411.68
2018-12-02T13:20:52.389Z,99406.44
2018-12-02T13:23:21.991Z,99408.02
2018-12-02T13:25:51.403Z,99407.02
2018-12-02T13:28:20.893Z,99412.13
2018-12-02T13:30:50.406Z,99411.77
2018-12-02T13:33:19.693Z,99412.41
2018-12-02T13:35:49.691Z,99407.34
2018-12-02T13:38:19.090Z,99419.22
2018-12-02T13:40:48.557Z,99413.06
2018-12-02T13:43:21.243Z,99423.71
2018-12-02T13:45:51.323Z,99424.09
2018-12-02T13:48:20.792Z,99431.17
2018-12-02T13:50:50.337Z,99429.62
2018-12-02T13:53:20.755Z,99434.19
2018-12-02T13:55:50.099Z,99445.48
2018-12-02T13:58:19.532Z,99442.42
2018-12-02T14:00:48.973Z,99453.42
2018-12-02T14:03:18.331Z,99458.44
2018-12-02T14:05:49.184Z,99454.80
2018-12-02T14:08:18.618Z,99459.50
2018-12-02T14:10:48.136Z,99461.38
2018-12-02T14:13:21.935Z,99455.58
2018-12-02T14:16:16.740Z,99467.52
2018-12-02T14:18:47.013Z,99465.19
2018-12-02T14:21:16.421Z,99469.66
2018-12-02T14:23:45.977Z,99473.94
2018-12-02T14:26:20.889Z,99474.16
2018-12-02T14:29:14.760Z,99478.64
2018-12-02T14:31:49.828Z,99489.27
2018-12-02T14:34:19.195Z,99483.47
2018-12-02T14:36:48.734Z,99480.11
2018-12-02T14:39:18.206Z,99493.73
2018-12-02T14:41:47.525Z,99486.06
2018-12-02T14:44:16.943Z,99489.63
2018-12-02T14:46:46.456Z,99488.22
2018-12-02T14:49:15.824Z,99492.98
2018-12-02T14:51:45.228Z,99494.92
2018-12-02T14:54:14.640Z,99499.88
2018-12-02T14:56:44.032Z,99496.45
2018-12-02T14:59:13.801Z,99498.21
2018-12-02T15:01:43.229Z,99503.80
2018-12-02T15:04:12.720Z,99504.08
2018-12-02T15:06:42.581Z,99506.69
2018-12-02T15:09:12.449Z,99505.31
2018-12-02T15:11:41.994Z,99508.47
2018-12-02T15:14:12.621Z,99504.54
2018-12-02T15:16:42.105Z,99515.19
2018-12-02T15:19:13.114Z,99510.14
2018-12-02T15:21:42.580Z,99514.79
2018-12-02T15:24:11.969Z,99518.98
2018-12-02T15:26:41.309Z,99519.54
2018-12-02T15:29:10.596Z,99531.84
2018-12-02T15:31:40.016Z,99522.88
2018-12-02T15:34:09.586Z,99525.98
2018-12-02T15:36:39.028Z,99524.73
2018-12-02T15:39:10.776Z,99528.37
2018-12-02T15:41:40.331Z,99526.14
2018-12-02T15:44:09.694Z,99524.45
2018-12-02T15:46:39.220Z,99533.03
2018-12-02T15:49:08.592Z,99531.37
2018-12-02T15:51:38.010Z,99524.19
2018-12-02T15:54:07.389Z,99532.67
2018-12-02T15:56:36.834Z,99536.20
2018-12-02T15:59:08.580Z,99536.59
2018-12-02T16:01:38.552Z,99542.73
2018-12-02T16:04:08.078Z,99536.59
2018-12-02T16:06:37.421Z,99538.09
2018-12-02T16:09:10.189Z,99539.95
2018-12-02T16:11:39.594Z,99540.67
2018-12-02T16:14:09.095Z,99540.12
2018-12-02T16:16:38.414Z,99537.73
2018-12-02T16:19:08.282Z,99535.48
2018-12-02T16:21:38.381Z,99538.56
2018-12-02T16:24:07.845Z,99536.61
2018-12-02T16:26:37.207Z,99538.11
2018-12-02T16:29:06.857Z,99546.11
2018-12-02T16:31:36.224Z,99543.23
2018-12-02T16:34:06.027Z,99541.28
2018-12-02T16:36:35.561Z,99540.89
2018-12-02T16:39:08.181Z,99541.55
2018-12-02T16:41:40.115Z,99542.56
2018-12-02T16:44:09.449Z,99539.56
2018-12-02T16:46:39.104Z,99536.13
2018-12-02T16:49:08.534Z,99538.81
2018-12-02T16:51:37.937Z,99542.66
2018-12-02T16:54:07.775Z,99543.48
2018-12-02T16:56:37.983Z,99535.84
2018-12-02T16:59:16.377Z,99534.70
2018-12-02T17:01:49.507Z,99533.30
2018-12-02T17:04:19.211Z,99521.19
2018-12-02T17:06:49.515Z,99530.14
2018-12-02T17:09:19.021Z,99532.27
2018-12-02T17:11:49.145Z,99539.57
2018-12-02T17:14:18.501Z,99536.17
2018-12-02T17:16:47.913Z,99538.35
2018-12-02T17:19:17.453Z,99542.83
2018-12-02T17:21:46.821Z,99546.58
2018-12-02T17:24:16.229Z,99543.21
2018-12-02T17:26:45.614Z,99540.53
2018-12-02T17:29:17.792Z,99547.12
2018-12-02T17:31:53.330Z,99546.67
2018-12-02T17:34:22.672Z,99539.30
2018-12-02T17:36:52.040Z,99550.42
2018-12-02T17:39:25.810Z,99546.50
2018-12-02T17:42:01.245Z,99554.17
2018-12-02T17:44:30.646Z,99549.28
2018-12-02T17:47:00.024Z,99551.89
2018-12-02T17:49:30.539Z,99550.69
2018-12-02T17:52:02.744Z,99547.12
2018-12-02T17:54:32.148Z,99551.14
2018-12-02T17:57:01.633Z,99547.78
2018-12-02T17:59:31.640Z,99555.06
2018-12-02T18:02:01.090Z,99557.31
2018-12-02T18:04:30.585Z,99561.42
2018-12-02T18:07:00.010Z,99563.84
2018-12-02T18:09:29.349Z,99569.26
2018-12-02T18:11:58.882Z,99572.63
2018-12-02T18:14:28.317Z,99571.98
2018-12-02T18:16:57.719Z,99567.44
2018-12-02T18:19:27.124Z,99572.27
2018-12-02T18:21:56.682Z,99570.52
2018-12-02T18:24:26.077Z,99565.84
2018-12-02T18:26:55.610Z,99571.17
2018-12-02T18:29:25.148Z,99579.08
2018-12-02T18:31:54.620Z,99580.57
2018-12-02T18:34:24.078Z,99588.16
2018-12-02T18:36:54.668Z,99591.52
2018-12-02T18:39:24.110Z,99588.61
2018-12-02T18:41:55.152Z,99597.84
2018-12-02T18:44:24.760Z,99595.16
2018-12-02T18:46:54.641Z,99601.57
2018-12-02T18:49:25.080Z,99603.17
2018-12-02T18:51:54.521Z,99602.25
2018-12-02T18:54:24.056Z,99604.58
2018-12-02T18:56:53.985Z,99605.78
2018-12-02T18:59:23.692Z,99605.88
2018-12-02T19:01:53.105Z,99599.70
2018-12-02T19:04:22.514Z,99604.59
2018-12-02T19:06:51.892Z,99605.34
2018-12-02T19:09:21.209Z,99614.66
2018-12-02T19:11:50.741Z,99617.10
2018-12-02T19:14:20.120Z,99621.02
2018-12-02T19:16:49.548Z,99613.06
2018-12-02T19:19:19.097Z,99607.73
2018-12-02T19:21:48.487Z,99607.55
2018-12-02T19:24:18.675Z,99611.87
2018-12-02T19:26:48.088Z,99606.92
2018-12-02T19:29:17.589Z,99599.15
2018-12-02T19:31:46.994Z,99605.32
2018-12-02T19:34:16.397Z,99604.20
2018-12-02T19:36:52.857Z,99598.13
2018-12-02T19:39:22.315Z,99600.29
2018-12-02T19:41:51.826Z,99599.38
2018-12-02T19:44:21.137Z,99601.22
2018-12-02T19:46:50.573Z,99599.13
2018-12-02T19:49:19.984Z,99606.02
2018-12-02T19:51:49.653Z,99605.00
2018-12-02T19:54:19.471Z,99604.61
2018-12-02T19:56:49.067Z,99607.85
2018-12-02T19:59:18.473Z,99608.51
2018-12-02T20:01:47.940Z,99606.81
2018-12-02T20:04:17.449Z,99607.78
2018-12-02T20:06:46.869Z,99596.98
2018-12-02T20:09:16.417Z,99597.34
2018-12-02T20:11:45.860Z,99599.36
2018-12-02T20:14:16.077Z,99595.94
2018-12-02T20:16:45.660Z,99594.89
2018-12-02T20:19:20.313Z,99586.77
2018-12-02T20:21:49.917Z,99590.74
2018-12-02T20:24:25.544Z,99584.48
2018-12-02T20:26:55.368Z,99587.73
2018-12-02T20:29:25.131Z,99582.67
2018-12-02T20:31:54.871Z,99581.47
2018-12-02T20:34:24.602Z,99586.78
2018-12-02T20:36:57.275Z,99587.23
2018-12-02T20:39:28.678Z,99582.28
2018-12-02T20:42:00.169Z,99581.03
2018-12-02T20:44:30.052Z,99579.83
2018-12-02T20:47:01.188Z,99571.09
2018-12-02T20:49:31.051Z,99571.64
2018-12-02T20:52:00.619Z,99577.31
2018-12-02T20:54:31.336Z,99578.52
2018-12-02T20:57:00.842Z,99578.68
2018-12-02T20:59:30.374Z,99568.94
2018-12-02T21:01:59.838Z,99567.72
2018-12-02T21:04:29.894Z,99560.45
2018-12-02T21:06:59.905Z,99562.05
2018-12-02T21:09:29.586Z,99555.98
2018-12-02T21:11:59.246Z,99551.55
2018-12-02T21:14:29.030Z,99550.05
2018-12-02T21:16:59.095Z,99547.28
2018-12-02T21:19:28.544Z,99552.14
2018-12-02T21:21:58.052Z,99545.55
2018-12-02T21:24:27.482Z,99543.59
2018-12-02T21:26:57.083Z,99539.58
2018-12-02T21:29:26.691Z,99543.33
2018-12-02T21:31:56.169Z,99541.93
2018-12-02T21:34:25.852Z,99540.91
2018-12-02T21:36:55.707Z,99542.61
2018-12-02T21:39:25.197Z,99537.39
2018-12-02T21:41:54.878Z,99537.29
2018-12-02T21:44:24.773Z,99537.88
2018-12-02T21:46:54.693Z,99529.75
2018-12-02T21:49:24.244Z,99536.17
2018-12-02T21:51:53.908Z,99532.91
2018-12-02T21:54:23.520Z,99533.66
2018-12-02T21:56:52.834Z,99530.41
2018-12-02T21:59:22.272Z,99523.22
2018-12-02T22:01:51.814Z,99524.62
2018-12-02T22:04:21.253Z,99520.78
2018-12-02T22:06:50.813Z,99527.70
2018-12-02T22:09:20.430Z,99520.87
2018-12-02T22:11:49.830Z,99522.08
2018-12-02T22:14:19.292Z,99516.50
2018-12-02T22:16:48.786Z,99522.64
2018-12-02T22:19:18.310Z,99523.48
2018-12-02T22:21:48.005Z,99517.52
2018-12-02T22:24:17.567Z,99524.05
2018-12-02T22:26:47.022Z,99519.73
2018-12-02T22:29:16.421Z,99518.92
2018-12-02T22:31:46.276Z,99519.11
2018-12-02T22:34:15.648Z,99528.61
2018-12-02T22:36:45.117Z,99521.92
2018-12-02T22:39:14.600Z,99523.68
2018-12-02T22:41:43.987Z,99523.97
2018-12-02T22:44:13.465Z,99520.05
2018-12-02T22:46:42.862Z,99517.55
2018-12-02T22:49:12.245Z,99516.53
2018-12-02T22:51:42.210Z,99517.56
2018-12-02T22:54:11.888Z,99522.33
2018-12-02T22:56:41.420Z,99528.47
2018-12-02T22:59:10.903Z,99525.95
2018-12-02T23:01:45.674Z,99527.06
2018-12-02T23:04:15.369Z,99524.65
2018-12-02T23:06:44.837Z,99530.89
2018-12-02T23:09:14.638Z,99530.95
2018-12-02T23:11:44.073Z,99532.65
2018-12-02T23:14:13.501Z,99539.47
2018-12-02T23:16:58.672Z,99530.78
2018-12-02T23:19:28.110Z,99529.65
2018-12-02T23:21:57.609Z,99525.19
2018-12-02T23:24:27.008Z,99520.71
2018-12-02T23:26:56.336Z,99529.16
2018-12-02T23:29:25.799Z,99517.12
2018-12-02T23:31:55.303Z,99511.91
2018-12-02T23:34:25.194Z,99504.08
2018-12-02T23:36:54.601Z,99491.03
2018-12-02T23:39:23.917Z,99493.34
2018-12-02T23:41:53.414Z,99488.69
2018-12-02T23:44:22.945Z,99496.41
2018-12-02T23:46:52.368Z,99510.31
2018-12-02T23:49:22.359Z,99507.41
2018-12-02T23:51:52.887Z,99507.13
2018-12-02T23:54:21.139Z,99513.09
2018-12-02T23:56:51.072Z,99495.44
2018-12-02T23:59:20.449Z,99504.77
